Synergy — WCZ5278 — position and weather

sailwx.info

Track history (hours):
 
Tides and Currents Weather Stations Pressure Air Temp Water Temp Dewpoint Dewpoint Depression Visibility Wind Speed Wind Dir Waves Ship Positions

Synergy

Owner: ERGON MARINE & INDUSTRIAL SUPPLY, VICKSBURG, MS. More information available from US FCC via Universal Licensing System.

Last reported at 2017-Nov-17 23:00 UTC. Time now 2017-Nov-17 23:07 UTC.
Position N 32°20' W 090°55'.

MMSI: 367101470.

Date/timePositionNaut miles runAvg speedWind from/ knotsBaromVisibWave heightAir tempDewpointWater temp
2017-Nov-17 23:00N 32°20' W 090°55'1 2.4
2017-Nov-17 22:30N 32°21' W 090°56'1 1.3
2017-Nov-17 22:00N 32°21' W 090°55'2 4.1
2017-Nov-17 21:30N 32°19' W 090°55'2 3.3
2017-Nov-17 21:00N 32°20' W 090°54'0 0.0
2017-Nov-17 20:30N 32°20' W 090°54'0 0.0
2017-Nov-17 20:00N 32°20' W 090°54'0 0.9
2017-Nov-17 19:30N 32°20' W 090°54'1 2.0
2017-Nov-17 19:00N 32°19' W 090°54'1 1.4
2017-Nov-17 18:30N 32°18' W 090°55'0 0.1
2017-Nov-17 18:00N 32°18' W 090°55'0 0.2
2017-Nov-17 17:30N 32°18' W 090°55'1 1.0
2017-Nov-17 17:00N 32°18' W 090°55'0 0.1
2017-Nov-17 16:30N 32°18' W 090°55'3 5.6
2017-Nov-17 16:00N 32°20' W 090°54'1 2.6
2017-Nov-17 15:30N 32°22' W 090°53'1 2.6
2017-Nov-17 15:00N 32°23' W 090°53'1 1.0
2017-Nov-17 14:30N 32°23' W 090°53'0 0.8
2017-Nov-17 14:00N 32°23' W 090°53'0 0.8
2017-Nov-17 13:30N 32°23' W 090°53'3 5.2
2017-Nov-17 13:00N 32°21' W 090°53'1 2.2
2017-Nov-17 12:30N 32°20' W 090°54'0 0.0
2017-Nov-17 12:00N 32°20' W 090°54'0 0.0
2017-Nov-17 11:30N 32°20' W 090°54'0 0.1
2017-Nov-17 11:00N 32°20' W 090°54'1 2.2
2017-Nov-17 10:30N 32°21' W 090°53'0 0.0
2017-Nov-17 10:00N 32°21' W 090°53'0 0.0
2017-Nov-17 09:30N 32°21' W 090°53'0 0.0
2017-Nov-17 09:00N 32°21' W 090°53'0 0.0
2017-Nov-17 08:30N 32°21' W 090°53'3 5.7
2017-Nov-17 08:00N 32°18' W 090°55'0 0.1
2017-Nov-17 07:30N 32°18' W 090°55'0 0.2
2017-Nov-17 07:00N 32°18' W 090°55'3 6.8
2017-Nov-17 06:30N 32°21' W 090°53'2 4.2
2017-Nov-17 06:00N 32°23' W 090°53'0 0.0
2017-Nov-17 05:30N 32°23' W 090°53'0 0.0
2017-Nov-17 05:00N 32°23' W 090°53'0 0.0
2017-Nov-17 04:30N 32°23' W 090°53'0 0.0
2017-Nov-17 04:00N 32°23' W 090°53'0 0.0
2017-Nov-17 03:30N 32°23' W 090°53'0 0.0
2017-Nov-17 03:00N 32°23' W 090°53'0 0.0
2017-Nov-17 02:30N 32°23' W 090°53'0 0.6
2017-Nov-17 02:00N 32°23' W 090°53'1 1.4
2017-Nov-17 01:30N 32°23' W 090°54'1 2.3
2017-Nov-17 01:00N 32°23' W 090°53'0 0.4
2017-Nov-17 00:30N 32°23' W 090°53'3 6.4
2017-Nov-17 00:00N 32°20' W 090°54'0 0.7
2017-Nov-16 23:30N 32°20' W 090°54'2 4.7
2017-Nov-16 23:00N 32°22' W 090°53'1 3.0
2017-Nov-16 22:30N 32°23' W 090°53'0 0.0
2017-Nov-16 22:00N 32°23' W 090°53'0 0.0
2017-Nov-16 21:30N 32°23' W 090°53'0 0.0
2017-Nov-16 21:00N 32°23' W 090°53'1 1.1
2017-Nov-16 20:30N 32°23' W 090°53'1 1.2
2017-Nov-16 20:00N 32°23' W 090°54'1 1.4
2017-Nov-16 19:30N 32°23' W 090°53'0 0.6
2017-Nov-16 19:00N 32°23' W 090°53'2 4.6
2017-Nov-16 18:30N 32°21' W 090°53'1 1.5
2017-Nov-16 18:00N 32°22' W 090°53'0 0.0
2017-Nov-16 17:30N 32°22' W 090°53'1 2.2
2017-Nov-16 17:00N 32°23' W 090°52'0 0.5
2017-Nov-16 16:30N 32°23' W 090°53'1 1.6
2017-Nov-16 16:00N 32°23' W 090°53'0 0.0
2017-Nov-16 15:30N 32°23' W 090°53'0 0.0
2017-Nov-16 15:00N 32°23' W 090°53'0 0.0
2017-Nov-16 14:30N 32°23' W 090°53'0 0.1
2017-Nov-16 14:00N 32°23' W 090°53'1 2.3
2017-Nov-16 13:30N 32°22' W 090°53'2 3.1
2017-Nov-16 13:00N 32°21' W 090°53'1 2.7
2017-Nov-16 12:30N 32°20' W 090°54'0 0.0
2017-Nov-16 12:00N 32°20' W 090°54'0 0.0
2017-Nov-16 11:30N 32°20' W 090°54'2 3.9
2017-Nov-16 11:00N 32°21' W 090°53'2 3.9
2017-Nov-16 10:30N 32°23' W 090°54'0 0.0
2017-Nov-16 10:00N 32°23' W 090°54'1 2.2
2017-Nov-16 09:30N 32°23' W 090°53'0 0.0
2017-Nov-16 09:00N 32°23' W 090°53'0 0.0
2017-Nov-16 08:30N 32°23' W 090°53'0 0.0
2017-Nov-16 08:00N 32°23' W 090°53'0 0.0
2017-Nov-16 07:30N 32°23' W 090°53'1 1.2
2017-Nov-16 07:00N 32°22' W 090°53'2 3.6
2017-Nov-16 06:30N 32°21' W 090°53'0 0.0
2017-Nov-16 06:00N 32°21' W 090°53'0 0.0
2017-Nov-16 05:30N 32°21' W 090°53'0 0.0
2017-Nov-16 05:00N 32°21' W 090°53'0 0.0
2017-Nov-16 04:30N 32°21' W 090°53'0 0.0
2017-Nov-16 04:00N 32°21' W 090°53'0 0.0
2017-Nov-16 03:30N 32°21' W 090°53'0 0.0
2017-Nov-16 03:00N 32°21' W 090°53'0 0.0
2017-Nov-16 02:30N 32°21' W 090°53'1 2.7
2017-Nov-16 02:00N 32°22' W 090°53'1 2.4
2017-Nov-16 01:30N 32°23' W 090°53'0 1.0
2017-Nov-16 01:00N 32°23' W 090°53'3 6.6
2017-Nov-16 00:30N 32°20' W 090°54'0 0.0
2017-Nov-16 00:00N 32°20' W 090°54'0 0.0
2017-Nov-15 23:30N 32°20' W 090°54'3 5.5
2017-Nov-15 23:00N 32°22' W 090°53'2 4.2
2017-Nov-15 22:30N 32°23' W 090°55'0 0.7
2017-Nov-15 22:00N 32°24' W 090°55'2 5.0
2017-Nov-15 21:30N 32°22' W 090°53'2 4.6
2017-Nov-15 21:00N 32°20' W 090°54'0 0.0
2017-Nov-15 20:30N 32°20' W 090°54'0 0.0
2017-Nov-15 20:00N 32°20' W 090°54'0 0.0
2017-Nov-15 19:30N 32°20' W 090°54'0 0.0
2017-Nov-15 19:00N 32°20' W 090°54'0 0.0
2017-Nov-15 18:30N 32°20' W 090°54'0 0.0
2017-Nov-15 18:00N 32°20' W 090°54'1 2.0
2017-Nov-15 17:30N 32°21' W 090°54'0 0.0
2017-Nov-15 17:00N 32°21' W 090°54'0 0.0
2017-Nov-15 16:30N 32°21' W 090°54'2 4.8
2017-Nov-15 16:00N 32°23' W 090°53'1 1.6
2017-Nov-15 15:30N 32°23' W 090°53'0 0.0
2017-Nov-15 15:00N 32°23' W 090°53'0 0.0
2017-Nov-15 14:30N 32°23' W 090°53'1 1.5
2017-Nov-15 14:00N 32°23' W 090°53'1 2.6
2017-Nov-15 13:30N 32°22' W 090°53'0 0.8
2017-Nov-15 13:00N 32°21' W 090°53'2 3.4
2017-Nov-15 12:30N 32°20' W 090°54'0 0.0
2017-Nov-15 12:00N 32°20' W 090°54'0 0.4
2017-Nov-15 11:30N 32°20' W 090°54'1 2.0
2017-Nov-15 11:00N 32°21' W 090°53'0 0.0
2017-Nov-15 10:31N 32°21' W 090°53'1 1.9
2017-Nov-15 10:00N 32°21' W 090°53'2 3.1
2017-Nov-15 09:30N 32°23' W 090°53'0 0.0
2017-Nov-15 09:00N 32°23' W 090°53'0 0.0
2017-Nov-15 08:30N 32°23' W 090°53'0 0.0
2017-Nov-15 08:00N 32°23' W 090°53'1 1.1
2017-Nov-15 07:30N 32°23' W 090°52'2 4.2
2017-Nov-15 07:00N 32°21' W 090°53'0 0.0
2017-Nov-15 06:31N 32°21' W 090°53'0 0.0
2017-Nov-15 06:00N 32°21' W 090°53'0 0.4
2017-Nov-15 05:30N 32°21' W 090°54'1 2.0
2017-Nov-15 05:01N 32°20' W 090°54'2 4.0
2017-Nov-15 04:30N 32°21' W 090°53'1 2.1
2017-Nov-15 04:00N 32°21' W 090°54'1 1.2
2017-Nov-15 03:30N 32°20' W 090°54'0 0.7
2017-Nov-15 03:01N 32°20' W 090°54'0 0.0
2017-Nov-15 02:30N 32°20' W 090°54'0 0.0
2017-Nov-15 02:00N 32°20' W 090°54'0 0.0
2017-Nov-15 01:30N 32°20' W 090°54'0 0.0
2017-Nov-15 01:00N 32°20' W 090°54'0 0.9
2017-Nov-15 00:30N 32°20' W 090°54'0 0.9
2017-Nov-15 00:00N 32°20' W 090°54'0 0.0
2017-Nov-14 23:31N 32°20' W 090°54'2 4.1
2017-Nov-14 23:01N 32°21' W 090°53'2 3.1
2017-Nov-14 22:30N 32°23' W 090°53'0 0.0
2017-Nov-14 22:00N 32°23' W 090°53'0 0.1
2017-Nov-14 21:30N 32°23' W 090°53'1 1.1
2017-Nov-14 21:00N 32°23' W 090°53'2 3.2
2017-Nov-14 20:31N 32°22' W 090°53'1 1.3
2017-Nov-14 20:00N 32°22' W 090°53'0 0.9
2017-Nov-14 19:31N 32°22' W 090°53'0 0.9
2017-Nov-14 19:00N 32°21' W 090°53'2 3.5
2017-Nov-14 18:31N 32°23' W 090°53'0 0.0
2017-Nov-14 18:01N 32°23' W 090°53'0 0.0
2017-Nov-14 17:31N 32°23' W 090°53'0 0.0
2017-Nov-14 17:01N 32°23' W 090°53'0 0.0
2017-Nov-14 16:30N 32°23' W 090°53'0 0.0
2017-Nov-14 16:01N 32°23' W 090°53'0 0.0
2017-Nov-14 15:31N 32°23' W 090°53'0 0.3
2017-Nov-14 15:00N 32°23' W 090°53'1 2.0
2017-Nov-14 14:31N 32°23' W 090°54'0 0.7
2017-Nov-14 14:00N 32°23' W 090°55'1 1.9
2017-Nov-14 13:30N 32°23' W 090°54'2 3.0
2017-Nov-14 13:00N 32°21' W 090°53'2 3.3
2017-Nov-14 12:30N 32°20' W 090°54'0 0.0
2017-Nov-14 12:00N 32°20' W 090°54'0 0.9
2017-Nov-14 11:30N 32°20' W 090°54'1 1.5
2017-Nov-14 11:01N 32°21' W 090°53'2 3.5
2017-Nov-14 10:30N 32°22' W 090°53'0 1.0
2017-Nov-14 10:01N 32°23' W 090°53'2 4.9
2017-Nov-14 09:30N 32°21' W 090°54'0 0.2
2017-Nov-14 09:01N 32°21' W 090°54'0 0.3
2017-Nov-14 08:31N 32°20' W 090°54'0 0.0
2017-Nov-14 08:01N 32°20' W 090°54'0 0.0
2017-Nov-14 07:31N 32°20' W 090°54'0 0.0
2017-Nov-14 07:00N 32°20' W 090°54'0 0.0
2017-Nov-14 06:31N 32°20' W 090°54'0 0.0
2017-Nov-14 06:01N 32°20' W 090°54'0 0.0
2017-Nov-14 05:30N 32°20' W 090°54'0 0.1
2017-Nov-14 05:01N 32°21' W 090°54'0 0.2
2017-Nov-14 04:30N 32°21' W 090°53'1 1.9
2017-Nov-14 04:00N 32°21' W 090°53'2 3.0
2017-Nov-14 03:30N 32°23' W 090°53'0 0.1
2017-Nov-14 03:00N 32°23' W 090°53'1 1.9
2017-Nov-14 02:31N 32°23' W 090°54'1 1.9
2017-Nov-14 02:01N 32°23' W 090°53'0 0.3
2017-Nov-14 01:31N 32°23' W 090°53'1 1.7
2017-Nov-14 01:00N 32°22' W 090°53'3 4.9
2017-Nov-14 00:26N 32°20' W 090°54'0 0.0
2017-Nov-14 00:00N 32°20' W 090°54'1 2.6
2017-Nov-13 23:30N 32°21' W 090°53'1 1.5
2017-Nov-13 23:00N 32°21' W 090°53'0 0.6
2017-Nov-13 22:30N 32°22' W 090°53'1 1.4
2017-Nov-13 22:00N 32°22' W 090°53'2 0.1
2017-Nov-13 02:00N 32°21' W 090°53'2 5.0
2017-Nov-13 01:30N 32°23' W 090°53'1 2.5
2017-Nov-13 01:00N 32°22' W 090°53'3 5.3
2017-Nov-13 00:30N 32°20' W 090°54'0 0.0
2017-Nov-13 00:01N 32°20' W 090°54'0 0.0
2017-Nov-12 23:31N 32°20' W 090°54'1 1.6
2017-Nov-12 23:00N 32°20' W 090°54'1 1.2
2017-Nov-12 22:30N 32°21' W 090°53'1 2.7
2017-Nov-12 22:00N 32°22' W 090°53'1 1.6
2017-Nov-12 21:30N 32°23' W 090°53'0 0.2
2017-Nov-12 21:00N 32°22' W 090°53'0 0.0
2017-Nov-12 20:30N 32°22' W 090°53'1 1.3
2017-Nov-12 20:01N 32°22' W 090°53'1 1.5
2017-Nov-12 19:30N 32°21' W 090°53'0 0.0
2017-Nov-12 19:00N 32°21' W 090°53'0 0.0
2017-Nov-12 18:30N 32°21' W 090°53'0 0.0
2017-Nov-12 18:00N 32°21' W 090°53'0 0.0
2017-Nov-12 17:30N 32°21' W 090°53'0 0.1
2017-Nov-12 17:00N 32°22' W 090°53'2 3.8
2017-Nov-12 16:30N 32°20' W 090°54'2 3.2
2017-Nov-12 16:00N 32°18' W 090°55'0 0.4
2017-Nov-12 15:30N 32°18' W 090°55'0 0.6
2017-Nov-12 15:01N 32°18' W 090°55'3 5.0
2017-Nov-12 14:30N 32°20' W 090°54'3 6.0
2017-Nov-12 14:01N 32°23' W 090°53'1 2.4
2017-Nov-12 13:31N 32°22' W 090°53'3 5.3
2017-Nov-12 13:00N 32°20' W 090°54'0 0.0
2017-Nov-12 12:31N 32°20' W 090°54'0 0.0
2017-Nov-12 12:01N 32°20' W 090°54'1 2.0
2017-Nov-12 11:31N 32°21' W 090°54'3 5.3
2017-Nov-12 11:01N 32°23' W 090°53'1 2.7
2017-Nov-12 10:30N 32°22' W 090°53'2 4.3
2017-Nov-12 10:01N 32°20' W 090°54'1 2.2
2017-Nov-12 09:30N 32°21' W 090°55'2 3.2
2017-Nov-12 09:00N 32°21' W 090°57'0 0.0
2017-Nov-12 08:31N 32°21' W 090°57'0 0.3
2017-Nov-12 08:00N 32°21' W 090°57'0 0.3
2017-Nov-12 07:31N 32°21' W 090°57'2 3.1
2017-Nov-12 07:00N 32°21' W 090°55'3 5.0
2017-Nov-12 06:31N 32°22' W 090°53'1 2.4
2017-Nov-12 06:01N 32°23' W 090°53'0 0.0
2017-Nov-12 05:31N 32°23' W 090°53'0 0.0
2017-Nov-12 05:01N 32°23' W 090°53'0 0.0
2017-Nov-12 04:30N 32°23' W 090°53'0 0.0
2017-Nov-12 04:01N 32°23' W 090°53'0 0.8
2017-Nov-12 03:30N 32°23' W 090°54'1 1.2
2017-Nov-12 03:00N 32°23' W 090°53'2 3.2
2017-Nov-12 02:31N 32°22' W 090°53'0 0.4
2017-Nov-12 02:01N 32°21' W 090°53'1 1.7
2017-Nov-12 01:31N 32°22' W 090°53'1 1.6
2017-Nov-12 01:00N 32°23' W 090°53'2 4.5
2017-Nov-12 00:30N 32°21' W 090°53'1 2.5
2017-Nov-12 00:00N 32°20' W 090°54'0 0.0
2017-Nov-11 23:30N 32°20' W 090°54'0 0.0
2017-Nov-11 23:00N 32°20' W 090°54'3 5.8
2017-Nov-11 22:30N 32°22' W 090°53'1 2.4
2017-Nov-11 22:00N 32°23' W 090°53'0 0.0
2017-Nov-11 21:30N 32°23' W 090°53'0 0.0
2017-Nov-11 21:00N 32°23' W 090°53'0 0.3
2017-Nov-11 20:30N 32°23' W 090°54'0 0.3
2017-Nov-11 20:00N 32°23' W 090°53'0 0.0
2017-Nov-11 19:30N 32°23' W 090°53'0 0.0
2017-Nov-11 19:00N 32°23' W 090°53'0 0.0
2017-Nov-11 18:30N 32°23' W 090°53'0 0.0
2017-Nov-11 18:00N 32°23' W 090°53'0 0.0
2017-Nov-11 17:30N 32°23' W 090°53'0 0.0
2017-Nov-11 17:00N 32°23' W 090°53'1 2.3
2017-Nov-11 16:30N 32°22' W 090°53'1 2.8
2017-Nov-11 16:00N 32°21' W 090°53'3 6.2
2017-Nov-11 15:30N 32°18' W 090°55'0 0.1
2017-Nov-11 15:00N 32°18' W 090°55'0 0.2
2017-Nov-11 14:30N 32°18' W 090°55'1 2.8
2017-Nov-11 14:00N 32°19' W 090°54'1 2.3
2017-Nov-11 13:30N 32°20' W 090°54'1 1.4
2017-Nov-11 13:00N 32°21' W 090°53'1 2.8
2017-Nov-11 12:30N 32°20' W 090°54'0 0.1
2017-Nov-11 12:01N 32°20' W 090°54'2 4.3
2017-Nov-11 11:31N 32°22' W 090°53'2 3.3
2017-Nov-11 11:00N 32°23' W 090°53'0 0.0
2017-Nov-11 10:31N 32°23' W 090°53'0 0.0
2017-Nov-11 10:00N 32°23' W 090°53'0 0.0
2017-Nov-11 09:31N 32°23' W 090°53'0 0.0
2017-Nov-11 09:01N 32°23' W 090°53'0 0.0
2017-Nov-11 08:31N 32°23' W 090°53'0 0.0
2017-Nov-11 08:00N 32°23' W 090°53'0 0.0
2017-Nov-11 07:30N 32°23' W 090°53'0 0.0
2017-Nov-11 07:00N 32°23' W 090°53'0 0.0
2017-Nov-11 06:31N 32°23' W 090°53'0 0.0
2017-Nov-11 06:01N 32°23' W 090°53'0 0.0
2017-Nov-11 05:31N 32°23' W 090°53'0 0.0
2017-Nov-11 05:00N 32°23' W 090°53'0 0.0
2017-Nov-11 04:31N 32°23' W 090°53'0 0.8
2017-Nov-11 04:01N 32°23' W 090°54'0 0.0
2017-Nov-11 03:30N 32°23' W 090°54'0 0.0
2017-Nov-11 03:01N 32°23' W 090°54'0 0.0
2017-Nov-11 02:30N 32°23' W 090°54'1 1.3
2017-Nov-11 02:00N 32°23' W 090°53'1 1.7
2017-Nov-11 01:31N 32°23' W 090°52'3 6.3
2017-Nov-11 01:01N 32°20' W 090°54'0 0.0
2017-Nov-11 00:30N 32°20' W 090°54'0 0.0
2017-Nov-11 00:00N 32°20' W 090°54'0 0.0
2017-Nov-10 23:30N 32°20' W 090°54'3 6.0
2017-Nov-10 23:00N 32°22' W 090°53'1 2.0
2017-Nov-10 22:30N 32°23' W 090°53'0 0.1
2017-Nov-10 22:00N 32°23' W 090°53'0 0.4
2017-Nov-10 21:30N 32°23' W 090°53'0 0.0
2017-Nov-10 21:00N 32°23' W 090°53'0 0.0
2017-Nov-10 20:30N 32°23' W 090°53'0 0.0
2017-Nov-10 20:00N 32°23' W 090°53'0 0.0
2017-Nov-10 19:28N 32°23' W 090°53'0 0.0
2017-Nov-10 19:00N 32°23' W 090°53'0 0.1
2017-Nov-10 18:30N 32°23' W 090°53'1 1.1
2017-Nov-10 18:00N 32°23' W 090°53'0 0.4
2017-Nov-10 17:30N 32°23' W 090°53'0 0.7
2017-Nov-10 17:00N 32°23' W 090°53'0 0.0
2017-Nov-10 16:30N 32°23' W 090°53'1 2.5
2017-Nov-10 16:00N 32°22' W 090°53'2 3.2
2017-Nov-10 15:30N 32°21' W 090°53'2 4.0
2017-Nov-10 15:00N 32°19' W 090°54'0 0.4
2017-Nov-10 14:30N 32°19' W 090°55'1 1.1
2017-Nov-10 14:00N 32°18' W 090°55'2 3.3
2017-Nov-10 13:30N 32°20' W 090°54'0 0.0
2017-Nov-10 13:00N 32°20' W 090°54'0 0.0
2017-Nov-10 12:30N 32°20' W 090°54'0 0.0
2017-Nov-10 12:00N 32°20' W 090°54'1 2.5
2017-Nov-10 11:30N 32°21' W 090°53'1 1.3
2017-Nov-10 11:00N 32°20' W 090°54'2 4.6
2017-Nov-10 10:30N 32°18' W 090°55'4 7.1
2017-Nov-10 10:00N 32°21' W 090°53'2 4.0
2017-Nov-10 09:30N 32°23' W 090°54'0 0.1
2017-Nov-10 09:00N 32°23' W 090°54'0 0.7
2017-Nov-10 08:30N 32°23' W 090°53'0 0.0
2017-Nov-10 08:00N 32°23' W 090°53'1 1.2
2017-Nov-10 07:30N 32°23' W 090°53'1 2.2
2017-Nov-10 07:00N 32°23' W 090°54'0 0.0
2017-Nov-10 06:30N 32°23' W 090°54'1 2.5
2017-Nov-10 06:00N 32°23' W 090°53'3 5.1
2017-Nov-10 05:30N 32°20' W 090°54'3 5.1
2017-Nov-10 05:00N 32°18' W 090°55'1 1.6
2017-Nov-10 04:30N 32°19' W 090°54'2 4.3
2017-Nov-10 04:00N 32°21' W 090°53'2 3.1
2017-Nov-10 03:30N 32°22' W 090°53'1 1.4
2017-Nov-10 03:00N 32°22' W 090°53'1 1.8
2017-Nov-10 02:30N 32°22' W 090°53'1 2.5
2017-Nov-10 02:00N 32°23' W 090°53'1 1.4
2017-Nov-10 01:30N 32°23' W 090°53'2 3.0
2017-Nov-10 01:00N 32°22' W 090°53'2 4.7
2017-Nov-10 00:30N 32°20' W 090°54'0 0.0
2017-Nov-10 00:00N 32°20' W 090°54'2 4.4
2017-Nov-09 23:30N 32°22' W 090°53'2 3.6
2017-Nov-09 23:00N 32°23' W 090°54'1 2.0
2017-Nov-09 22:30N 32°23' W 090°53'0 0.1
2017-Nov-09 22:00N 32°23' W 090°53'0 0.0
2017-Nov-09 21:30N 32°23' W 090°53'0 0.0
2017-Nov-09 21:00N 32°23' W 090°53'0 0.0
2017-Nov-09 20:30N 32°23' W 090°53'0 0.5
2017-Nov-09 20:00N 32°23' W 090°53'0 0.2
2017-Nov-09 19:30N 32°23' W 090°53'0 0.7
2017-Nov-09 19:00N 32°23' W 090°54'0 0.8
2017-Nov-09 18:30N 32°23' W 090°54'0 0.0
2017-Nov-09 18:00N 32°23' W 090°54'1 2.0
2017-Nov-09 17:30N 32°23' W 090°53'1 1.7
2017-Nov-09 17:00N 32°23' W 090°54'1 1.7
2017-Nov-09 16:30N 32°23' W 090°53'1 1.2
2017-Nov-09 16:00N 32°22' W 090°53'1 2.9
2017-Nov-09 15:30N 32°23' W 090°54'1 1.6
2017-Nov-09 15:00N 32°23' W 090°53'0 0.2
2017-Nov-09 14:30N 32°23' W 090°53'0 0.0
2017-Nov-09 14:00N 32°23' W 090°53'1 1.0
2017-Nov-09 13:30N 32°23' W 090°53'3 5.6
2017-Nov-09 13:00N 32°20' W 090°54'1 1.3
2017-Nov-09 12:30N 32°20' W 090°54'0 0.0
2017-Nov-09 12:00N 32°20' W 090°54'2 3.1
2017-Nov-09 11:30N 32°21' W 090°53'2 4.3
2017-Nov-09 11:00N 32°23' W 090°53'0 0.3
2017-Nov-09 10:30N 32°23' W 090°53'0 0.0
2017-Nov-09 10:00N 32°23' W 090°53'0 0.0
2017-Nov-09 09:30N 32°23' W 090°53'1 2.6
2017-Nov-09 09:00N 32°22' W 090°53'2 4.2
2017-Nov-09 08:30N 32°20' W 090°54'3 5.6
2017-Nov-09 08:00N 32°21' W 090°57'0 0.6
2017-Nov-09 07:30N 32°21' W 090°57'1 3.0
2017-Nov-09 07:00N 32°21' W 090°55'3 5.7
2017-Nov-09 06:30N 32°23' W 090°52'1 2.5
2017-Nov-09 06:00N 32°23' W 090°54'1 2.6
2017-Nov-09 05:30N 32°22' W 090°53'1 1.6
2017-Nov-09 05:00N 32°22' W 090°53'1 2.9
2017-Nov-09 04:30N 32°23' W 090°53'0 0.0
2017-Nov-09 04:00N 32°23' W 090°53'0 0.0
2017-Nov-09 03:30N 32°23' W 090°53'0 0.0
2017-Nov-09 03:00N 32°23' W 090°53'0 0.0
2017-Nov-09 02:30N 32°23' W 090°53'1 1.6
2017-Nov-09 02:00N 32°23' W 090°54'2 3.6
2017-Nov-09 01:30N 32°22' W 090°53'3 5.3
2017-Nov-09 01:00N 32°24' W 090°55'3 6.0
2017-Nov-09 00:30N 32°21' W 090°53'2 3.2
2017-Nov-09 00:01N 32°20' W 090°54'0 0.0
2017-Nov-08 23:31N 32°20' W 090°54'3 7.0
2017-Nov-08 23:01N 32°23' W 090°53'0 0.7
2017-Nov-08 22:31N 32°23' W 090°53'1 1.8
2017-Nov-08 22:01N 32°22' W 090°53'3 6.0
2017-Nov-08 21:31N 32°20' W 090°54'2 4.2
2017-Nov-08 21:01N 32°22' W 090°53'2 3.1
2017-Nov-08 20:31N 32°23' W 090°53'1 2.9
2017-Nov-08 20:01N 32°22' W 090°53'2 4.8
2017-Nov-08 19:30N 32°23' W 090°55'0 0.1
2017-Nov-08 19:01N 32°23' W 090°55'2 3.0
2017-Nov-08 18:31N 32°23' W 090°53'0 0.8
2017-Nov-08 18:01N 32°23' W 090°53'0 0.0
2017-Nov-08 17:30N 32°23' W 090°53'0 0.8
2017-Nov-08 17:00N 32°23' W 090°53'2 3.3
2017-Nov-08 16:31N 32°21' W 090°53'0 0.5
2017-Nov-08 16:01N 32°22' W 090°53'2 3.0
2017-Nov-08 15:31N 32°23' W 090°53'0 0.3
2017-Nov-08 15:01N 32°23' W 090°53'0 0.0
2017-Nov-08 14:31N 32°23' W 090°53'0 0.0
2017-Nov-08 14:01N 32°23' W 090°53'0 0.0
2017-Nov-08 13:30N 32°23' W 090°53'1 1.8
2017-Nov-08 13:01N 32°22' W 090°52'3 6.3
2017-Nov-08 12:31N 32°20' W 090°54'0 0.0
2017-Nov-08 12:00N 32°20' W 090°54'0 0.0
2017-Nov-08 11:31N 32°20' W 090°54'1 1.8
2017-Nov-08 11:01N 32°20' W 090°54'1 2.3
2017-Nov-08 10:31N 32°21' W 090°53'0 0.0
2017-Nov-08 10:00N 32°21' W 090°53'0 0.0
2017-Nov-08 09:31N 32°21' W 090°53'1 1.9
2017-Nov-08 09:00N 32°22' W 090°53'1 2.3
2017-Nov-08 08:31N 32°23' W 090°53'0 0.0
2017-Nov-08 08:00N 32°23' W 090°53'0 0.0
2017-Nov-08 07:31N 32°23' W 090°53'0 0.0
2017-Nov-08 07:00N 32°23' W 090°53'0 0.0
2017-Nov-08 06:31N 32°23' W 090°53'0 0.0
2017-Nov-08 06:01N 32°23' W 090°53'0 0.0
2017-Nov-08 05:31N 32°23' W 090°53'0 0.0
2017-Nov-08 05:01N 32°23' W 090°53'0 0.0
2017-Nov-08 04:31N 32°23' W 090°53'0 0.0
2017-Nov-08 04:01N 32°23' W 090°53'0 0.0
2017-Nov-08 03:31N 32°23' W 090°53'0 0.0
2017-Nov-08 03:01N 32°23' W 090°53'0 0.0
2017-Nov-08 02:30N 32°23' W 090°53'0 0.0
2017-Nov-08 02:01N 32°23' W 090°53'0 0.0
2017-Nov-08 01:31N 32°23' W 090°53'0 1.0
2017-Nov-08 01:01N 32°23' W 090°53'3 6.4
2017-Nov-08 00:31N 32°20' W 090°54'0 0.8
2017-Nov-08 00:01N 32°20' W 090°54'0 0.0
2017-Nov-07 23:30N 32°20' W 090°54'3 5.5
2017-Nov-07 23:01N 32°22' W 090°53'  
Track history (hours):
 
Tides and Currents Weather Stations Pressure Air Temp Water Temp Dewpoint Dewpoint Depression Visibility Wind Speed Wind Dir Waves Ship Positions

Synergy

Owner: ERGON MARINE & INDUSTRIAL SUPPLY, VICKSBURG, MS. More information available from US FCC via Universal Licensing System.

Last reported at 2017-Nov-17 23:00 UTC. Time now 2017-Nov-17 23:07 UTC.
Position N 32°20' W 090°55'.

MMSI: 367101470.

Date/timePositionNaut miles runAvg speedWind from/ knotsBaromVisibWave heightAir tempDewpointWater temp
2017-Nov-17 23:00N 32°20' W 090°55'1 2.4
2017-Nov-17 22:30N 32°21' W 090°56'1 1.3
2017-Nov-17 22:00N 32°21' W 090°55'2 4.1
2017-Nov-17 21:30N 32°19' W 090°55'2 3.3
2017-Nov-17 21:00N 32°20' W 090°54'0 0.0
2017-Nov-17 20:30N 32°20' W 090°54'0 0.0
2017-Nov-17 20:00N 32°20' W 090°54'0 0.9
2017-Nov-17 19:30N 32°20' W 090°54'1 2.0
2017-Nov-17 19:00N 32°19' W 090°54'1 1.4
2017-Nov-17 18:30N 32°18' W 090°55'0 0.1
2017-Nov-17 18:00N 32°18' W 090°55'0 0.2
2017-Nov-17 17:30N 32°18' W 090°55'1 1.0
2017-Nov-17 17:00N 32°18' W 090°55'0 0.1
2017-Nov-17 16:30N 32°18' W 090°55'3 5.6
2017-Nov-17 16:00N 32°20' W 090°54'1 2.6
2017-Nov-17 15:30N 32°22' W 090°53'1 2.6
2017-Nov-17 15:00N 32°23' W 090°53'1 1.0
2017-Nov-17 14:30N 32°23' W 090°53'0 0.8
2017-Nov-17 14:00N 32°23' W 090°53'0 0.8
2017-Nov-17 13:30N 32°23' W 090°53'3 5.2
2017-Nov-17 13:00N 32°21' W 090°53'1 2.2
2017-Nov-17 12:30N 32°20' W 090°54'0 0.0
2017-Nov-17 12:00N 32°20' W 090°54'0 0.0
2017-Nov-17 11:30N 32°20' W 090°54'0 0.1
2017-Nov-17 11:00N 32°20' W 090°54'1 2.2
2017-Nov-17 10:30N 32°21' W 090°53'0 0.0
2017-Nov-17 10:00N 32°21' W 090°53'0 0.0
2017-Nov-17 09:30N 32°21' W 090°53'0 0.0
2017-Nov-17 09:00N 32°21' W 090°53'0 0.0
2017-Nov-17 08:30N 32°21' W 090°53'3 5.7
2017-Nov-17 08:00N 32°18' W 090°55'0 0.1
2017-Nov-17 07:30N 32°18' W 090°55'0 0.2
2017-Nov-17 07:00N 32°18' W 090°55'3 6.8
2017-Nov-17 06:30N 32°21' W 090°53'2 4.2
2017-Nov-17 06:00N 32°23' W 090°53'0 0.0
2017-Nov-17 05:30N 32°23' W 090°53'0 0.0
2017-Nov-17 05:00N 32°23' W 090°53'0 0.0
2017-Nov-17 04:30N 32°23' W 090°53'0 0.0
2017-Nov-17 04:00N 32°23' W 090°53'0 0.0
2017-Nov-17 03:30N 32°23' W 090°53'0 0.0
2017-Nov-17 03:00N 32°23' W 090°53'0 0.0
2017-Nov-17 02:30N 32°23' W 090°53'0 0.6
2017-Nov-17 02:00N 32°23' W 090°53'1 1.4
2017-Nov-17 01:30N 32°23' W 090°54'1 2.3
2017-Nov-17 01:00N 32°23' W 090°53'0 0.4
2017-Nov-17 00:30N 32°23' W 090°53'3 6.4
2017-Nov-17 00:00N 32°20' W 090°54'0 0.7
2017-Nov-16 23:30N 32°20' W 090°54'2 4.7
2017-Nov-16 23:00N 32°22' W 090°53'1 3.0
2017-Nov-16 22:30N 32°23' W 090°53'0 0.0
2017-Nov-16 22:00N 32°23' W 090°53'0 0.0
2017-Nov-16 21:30N 32°23' W 090°53'0 0.0
2017-Nov-16 21:00N 32°23' W 090°53'1 1.1
2017-Nov-16 20:30N 32°23' W 090°53'1 1.2
2017-Nov-16 20:00N 32°23' W 090°54'1 1.4
2017-Nov-16 19:30N 32°23' W 090°53'0 0.6
2017-Nov-16 19:00N 32°23' W 090°53'2 4.6
2017-Nov-16 18:30N 32°21' W 090°53'1 1.5
2017-Nov-16 18:00N 32°22' W 090°53'0 0.0
2017-Nov-16 17:30N 32°22' W 090°53'1 2.2
2017-Nov-16 17:00N 32°23' W 090°52'0 0.5
2017-Nov-16 16:30N 32°23' W 090°53'1 1.6
2017-Nov-16 16:00N 32°23' W 090°53'0 0.0
2017-Nov-16 15:30N 32°23' W 090°53'0 0.0
2017-Nov-16 15:00N 32°23' W 090°53'0 0.0
2017-Nov-16 14:30N 32°23' W 090°53'0 0.1
2017-Nov-16 14:00N 32°23' W 090°53'1 2.3
2017-Nov-16 13:30N 32°22' W 090°53'2 3.1
2017-Nov-16 13:00N 32°21' W 090°53'1 2.7
2017-Nov-16 12:30N 32°20' W 090°54'0 0.0
2017-Nov-16 12:00N 32°20' W 090°54'0 0.0
2017-Nov-16 11:30N 32°20' W 090°54'2 3.9
2017-Nov-16 11:00N 32°21' W 090°53'2 3.9
2017-Nov-16 10:30N 32°23' W 090°54'0 0.0
2017-Nov-16 10:00N 32°23' W 090°54'1 2.2
2017-Nov-16 09:30N 32°23' W 090°53'0 0.0
2017-Nov-16 09:00N 32°23' W 090°53'0 0.0
2017-Nov-16 08:30N 32°23' W 090°53'0 0.0
2017-Nov-16 08:00N 32°23' W 090°53'0 0.0
2017-Nov-16 07:30N 32°23' W 090°53'1 1.2
2017-Nov-16 07:00N 32°22' W 090°53'2 3.6
2017-Nov-16 06:30N 32°21' W 090°53'0 0.0
2017-Nov-16 06:00N 32°21' W 090°53'0 0.0
2017-Nov-16 05:30N 32°21' W 090°53'0 0.0
2017-Nov-16 05:00N 32°21' W 090°53'0 0.0
2017-Nov-16 04:30N 32°21' W 090°53'0 0.0
2017-Nov-16 04:00N 32°21' W 090°53'0 0.0
2017-Nov-16 03:30N 32°21' W 090°53'0 0.0
2017-Nov-16 03:00N 32°21' W 090°53'0 0.0
2017-Nov-16 02:30N 32°21' W 090°53'1 2.7
2017-Nov-16 02:00N 32°22' W 090°53'1 2.4
2017-Nov-16 01:30N 32°23' W 090°53'0 1.0
2017-Nov-16 01:00N 32°23' W 090°53'3 6.6
2017-Nov-16 00:30N 32°20' W 090°54'0 0.0
2017-Nov-16 00:00N 32°20' W 090°54'0 0.0
2017-Nov-15 23:30N 32°20' W 090°54'3 5.5
2017-Nov-15 23:00N 32°22' W 090°53'2 4.2
2017-Nov-15 22:30N 32°23' W 090°55'0 0.7
2017-Nov-15 22:00N 32°24' W 090°55'2 5.0
2017-Nov-15 21:30N 32°22' W 090°53'2 4.6
2017-Nov-15 21:00N 32°20' W 090°54'0 0.0
2017-Nov-15 20:30N 32°20' W 090°54'0 0.0
2017-Nov-15 20:00N 32°20' W 090°54'0 0.0
2017-Nov-15 19:30N 32°20' W 090°54'0 0.0
2017-Nov-15 19:00N 32°20' W 090°54'0 0.0
2017-Nov-15 18:30N 32°20' W 090°54'0 0.0
2017-Nov-15 18:00N 32°20' W 090°54'1 2.0
2017-Nov-15 17:30N 32°21' W 090°54'0 0.0
2017-Nov-15 17:00N 32°21' W 090°54'0 0.0
2017-Nov-15 16:30N 32°21' W 090°54'2 4.8
2017-Nov-15 16:00N 32°23' W 090°53'1 1.6
2017-Nov-15 15:30N 32°23' W 090°53'0 0.0
2017-Nov-15 15:00N 32°23' W 090°53'0 0.0
2017-Nov-15 14:30N 32°23' W 090°53'1 1.5
2017-Nov-15 14:00N 32°23' W 090°53'1 2.6
2017-Nov-15 13:30N 32°22' W 090°53'0 0.8
2017-Nov-15 13:00N 32°21' W 090°53'2 3.4
2017-Nov-15 12:30N 32°20' W 090°54'0 0.0
2017-Nov-15 12:00N 32°20' W 090°54'0 0.4
2017-Nov-15 11:30N 32°20' W 090°54'1 2.0
2017-Nov-15 11:00N 32°21' W 090°53'0 0.0
2017-Nov-15 10:31N 32°21' W 090°53'1 1.9
2017-Nov-15 10:00N 32°21' W 090°53'2 3.1
2017-Nov-15 09:30N 32°23' W 090°53'0 0.0
2017-Nov-15 09:00N 32°23' W 090°53'0 0.0
2017-Nov-15 08:30N 32°23' W 090°53'0 0.0
2017-Nov-15 08:00N 32°23' W 090°53'1 1.1
2017-Nov-15 07:30N 32°23' W 090°52'2 4.2
2017-Nov-15 07:00N 32°21' W 090°53'0 0.0
2017-Nov-15 06:31N 32°21' W 090°53'0 0.0
2017-Nov-15 06:00N 32°21' W 090°53'0 0.4
2017-Nov-15 05:30N 32°21' W 090°54'1 2.0
2017-Nov-15 05:01N 32°20' W 090°54'2 4.0
2017-Nov-15 04:30N 32°21' W 090°53'1 2.1
2017-Nov-15 04:00N 32°21' W 090°54'1 1.2
2017-Nov-15 03:30N 32°20' W 090°54'0 0.7
2017-Nov-15 03:01N 32°20' W 090°54'0 0.0
2017-Nov-15 02:30N 32°20' W 090°54'0 0.0
2017-Nov-15 02:00N 32°20' W 090°54'0 0.0
2017-Nov-15 01:30N 32°20' W 090°54'0 0.0
2017-Nov-15 01:00N 32°20' W 090°54'0 0.9
2017-Nov-15 00:30N 32°20' W 090°54'0 0.9
2017-Nov-15 00:00N 32°20' W 090°54'0 0.0
2017-Nov-14 23:31N 32°20' W 090°54'2 4.1
2017-Nov-14 23:01N 32°21' W 090°53'2 3.1
2017-Nov-14 22:30N 32°23' W 090°53'0 0.0
2017-Nov-14 22:00N 32°23' W 090°53'0 0.1
2017-Nov-14 21:30N 32°23' W 090°53'1 1.1
2017-Nov-14 21:00N 32°23' W 090°53'2 3.2
2017-Nov-14 20:31N 32°22' W 090°53'1 1.3
2017-Nov-14 20:00N 32°22' W 090°53'0 0.9
2017-Nov-14 19:31N 32°22' W 090°53'0 0.9
2017-Nov-14 19:00N 32°21' W 090°53'2 3.5
2017-Nov-14 18:31N 32°23' W 090°53'0 0.0
2017-Nov-14 18:01N 32°23' W 090°53'0 0.0
2017-Nov-14 17:31N 32°23' W 090°53'0 0.0
2017-Nov-14 17:01N 32°23' W 090°53'0 0.0
2017-Nov-14 16:30N 32°23' W 090°53'0 0.0
2017-Nov-14 16:01N 32°23' W 090°53'0 0.0
2017-Nov-14 15:31N 32°23' W 090°53'0 0.3
2017-Nov-14 15:00N 32°23' W 090°53'1 2.0
2017-Nov-14 14:31N 32°23' W 090°54'0 0.7
2017-Nov-14 14:00N 32°23' W 090°55'1 1.9
2017-Nov-14 13:30N 32°23' W 090°54'2 3.0
2017-Nov-14 13:00N 32°21' W 090°53'2 3.3
2017-Nov-14 12:30N 32°20' W 090°54'0 0.0
2017-Nov-14 12:00N 32°20' W 090°54'0 0.9
2017-Nov-14 11:30N 32°20' W 090°54'1 1.5
2017-Nov-14 11:01N 32°21' W 090°53'2 3.5
2017-Nov-14 10:30N 32°22' W 090°53'0 1.0
2017-Nov-14 10:01N 32°23' W 090°53'2 4.9
2017-Nov-14 09:30N 32°21' W 090°54'0 0.2
2017-Nov-14 09:01N 32°21' W 090°54'0 0.3
2017-Nov-14 08:31N 32°20' W 090°54'0 0.0
2017-Nov-14 08:01N 32°20' W 090°54'0 0.0
2017-Nov-14 07:31N 32°20' W 090°54'0 0.0
2017-Nov-14 07:00N 32°20' W 090°54'0 0.0
2017-Nov-14 06:31N 32°20' W 090°54'0 0.0
2017-Nov-14 06:01N 32°20' W 090°54'0 0.0
2017-Nov-14 05:30N 32°20' W 090°54'0 0.1
2017-Nov-14 05:01N 32°21' W 090°54'0 0.2
2017-Nov-14 04:30N 32°21' W 090°53'1 1.9
2017-Nov-14 04:00N 32°21' W 090°53'2 3.0
2017-Nov-14 03:30N 32°23' W 090°53'0 0.1
2017-Nov-14 03:00N 32°23' W 090°53'1 1.9
2017-Nov-14 02:31N 32°23' W 090°54'1 1.9
2017-Nov-14 02:01N 32°23' W 090°53'0 0.3
2017-Nov-14 01:31N 32°23' W 090°53'1 1.7
2017-Nov-14 01:00N 32°22' W 090°53'3 4.9
2017-Nov-14 00:26N 32°20' W 090°54'0 0.0
2017-Nov-14 00:00N 32°20' W 090°54'1 2.6
2017-Nov-13 23:30N 32°21' W 090°53'1 1.5
2017-Nov-13 23:00N 32°21' W 090°53'0 0.6
2017-Nov-13 22:30N 32°22' W 090°53'1 1.4
2017-Nov-13 22:00N 32°22' W 090°53'2 0.1
2017-Nov-13 02:00N 32°21' W 090°53'2 5.0
2017-Nov-13 01:30N 32°23' W 090°53'1 2.5
2017-Nov-13 01:00N 32°22' W 090°53'3 5.3
2017-Nov-13 00:30N 32°20' W 090°54'0 0.0
2017-Nov-13 00:01N 32°20' W 090°54'0 0.0
2017-Nov-12 23:31N 32°20' W 090°54'1 1.6
2017-Nov-12 23:00N 32°20' W 090°54'1 1.2
2017-Nov-12 22:30N 32°21' W 090°53'1 2.7
2017-Nov-12 22:00N 32°22' W 090°53'1 1.6
2017-Nov-12 21:30N 32°23' W 090°53'0 0.2
2017-Nov-12 21:00N 32°22' W 090°53'0 0.0
2017-Nov-12 20:30N 32°22' W 090°53'1 1.3
2017-Nov-12 20:01N 32°22' W 090°53'1 1.5
2017-Nov-12 19:30N 32°21' W 090°53'0 0.0
2017-Nov-12 19:00N 32°21' W 090°53'0 0.0
2017-Nov-12 18:30N 32°21' W 090°53'0 0.0
2017-Nov-12 18:00N 32°21' W 090°53'0 0.0
2017-Nov-12 17:30N 32°21' W 090°53'0 0.1
2017-Nov-12 17:00N 32°22' W 090°53'2 3.8
2017-Nov-12 16:30N 32°20' W 090°54'2 3.2
2017-Nov-12 16:00N 32°18' W 090°55'0 0.4
2017-Nov-12 15:30N 32°18' W 090°55'0 0.6
2017-Nov-12 15:01N 32°18' W 090°55'3 5.0
2017-Nov-12 14:30N 32°20' W 090°54'3 6.0
2017-Nov-12 14:01N 32°23' W 090°53'1 2.4
2017-Nov-12 13:31N 32°22' W 090°53'3 5.3
2017-Nov-12 13:00N 32°20' W 090°54'0 0.0
2017-Nov-12 12:31N 32°20' W 090°54'0 0.0
2017-Nov-12 12:01N 32°20' W 090°54'1 2.0
2017-Nov-12 11:31N 32°21' W 090°54'3 5.3
2017-Nov-12 11:01N 32°23' W 090°53'1 2.7
2017-Nov-12 10:30N 32°22' W 090°53'2 4.3
2017-Nov-12 10:01N 32°20' W 090°54'1 2.2
2017-Nov-12 09:30N 32°21' W 090°55'2 3.2
2017-Nov-12 09:00N 32°21' W 090°57'0 0.0
2017-Nov-12 08:31N 32°21' W 090°57'0 0.3
2017-Nov-12 08:00N 32°21' W 090°57'0 0.3
2017-Nov-12 07:31N 32°21' W 090°57'2 3.1
2017-Nov-12 07:00N 32°21' W 090°55'3 5.0
2017-Nov-12 06:31N 32°22' W 090°53'1 2.4
2017-Nov-12 06:01N 32°23' W 090°53'0 0.0
2017-Nov-12 05:31N 32°23' W 090°53'0 0.0
2017-Nov-12 05:01N 32°23' W 090°53'0 0.0
2017-Nov-12 04:30N 32°23' W 090°53'0 0.0
2017-Nov-12 04:01N 32°23' W 090°53'0 0.8
2017-Nov-12 03:30N 32°23' W 090°54'1 1.2
2017-Nov-12 03:00N 32°23' W 090°53'2 3.2
2017-Nov-12 02:31N 32°22' W 090°53'0 0.4
2017-Nov-12 02:01N 32°21' W 090°53'1 1.7
2017-Nov-12 01:31N 32°22' W 090°53'1 1.6
2017-Nov-12 01:00N 32°23' W 090°53'2 4.5
2017-Nov-12 00:30N 32°21' W 090°53'1 2.5
2017-Nov-12 00:00N 32°20' W 090°54'0 0.0
2017-Nov-11 23:30N 32°20' W 090°54'0 0.0
2017-Nov-11 23:00N 32°20' W 090°54'3 5.8
2017-Nov-11 22:30N 32°22' W 090°53'1 2.4
2017-Nov-11 22:00N 32°23' W 090°53'0 0.0
2017-Nov-11 21:30N 32°23' W 090°53'0 0.0
2017-Nov-11 21:00N 32°23' W 090°53'0 0.3
2017-Nov-11 20:30N 32°23' W 090°54'0 0.3
2017-Nov-11 20:00N 32°23' W 090°53'0 0.0
2017-Nov-11 19:30N 32°23' W 090°53'0 0.0
2017-Nov-11 19:00N 32°23' W 090°53'0 0.0
2017-Nov-11 18:30N 32°23' W 090°53'0 0.0
2017-Nov-11 18:00N 32°23' W 090°53'0 0.0
2017-Nov-11 17:30N 32°23' W 090°53'0 0.0
2017-Nov-11 17:00N 32°23' W 090°53'1 2.3
2017-Nov-11 16:30N 32°22' W 090°53'1 2.8
2017-Nov-11 16:00N 32°21' W 090°53'3 6.2
2017-Nov-11 15:30N 32°18' W 090°55'0 0.1
2017-Nov-11 15:00N 32°18' W 090°55'0 0.2
2017-Nov-11 14:30N 32°18' W 090°55'1 2.8
2017-Nov-11 14:00N 32°19' W 090°54'1 2.3
2017-Nov-11 13:30N 32°20' W 090°54'1 1.4
2017-Nov-11 13:00N 32°21' W 090°53'1 2.8
2017-Nov-11 12:30N 32°20' W 090°54'0 0.1
2017-Nov-11 12:01N 32°20' W 090°54'2 4.3
2017-Nov-11 11:31N 32°22' W 090°53'2 3.3
2017-Nov-11 11:00N 32°23' W 090°53'0 0.0
2017-Nov-11 10:31N 32°23' W 090°53'0 0.0
2017-Nov-11 10:00N 32°23' W 090°53'0 0.0
2017-Nov-11 09:31N 32°23' W 090°53'0 0.0
2017-Nov-11 09:01N 32°23' W 090°53'0 0.0
2017-Nov-11 08:31N 32°23' W 090°53'0 0.0
2017-Nov-11 08:00N 32°23' W 090°53'0 0.0
2017-Nov-11 07:30N 32°23' W 090°53'0 0.0
2017-Nov-11 07:00N 32°23' W 090°53'0 0.0
2017-Nov-11 06:31N 32°23' W 090°53'0 0.0
2017-Nov-11 06:01N 32°23' W 090°53'0 0.0
2017-Nov-11 05:31N 32°23' W 090°53'0 0.0
2017-Nov-11 05:00N 32°23' W 090°53'0 0.0
2017-Nov-11 04:31N 32°23' W 090°53'0 0.8
2017-Nov-11 04:01N 32°23' W 090°54'0 0.0
2017-Nov-11 03:30N 32°23' W 090°54'0 0.0
2017-Nov-11 03:01N 32°23' W 090°54'0 0.0
2017-Nov-11 02:30N 32°23' W 090°54'1 1.3
2017-Nov-11 02:00N 32°23' W 090°53'1 1.7
2017-Nov-11 01:31N 32°23' W 090°52'3 6.3
2017-Nov-11 01:01N 32°20' W 090°54'0 0.0
2017-Nov-11 00:30N 32°20' W 090°54'0 0.0
2017-Nov-11 00:00N 32°20' W 090°54'0 0.0
2017-Nov-10 23:30N 32°20' W 090°54'3 6.0
2017-Nov-10 23:00N 32°22' W 090°53'1 2.0
2017-Nov-10 22:30N 32°23' W 090°53'0 0.1
2017-Nov-10 22:00N 32°23' W 090°53'0 0.4
2017-Nov-10 21:30N 32°23' W 090°53'0 0.0
2017-Nov-10 21:00N 32°23' W 090°53'0 0.0
2017-Nov-10 20:30N 32°23' W 090°53'0 0.0
2017-Nov-10 20:00N 32°23' W 090°53'0 0.0
2017-Nov-10 19:28N 32°23' W 090°53'0 0.0
2017-Nov-10 19:00N 32°23' W 090°53'0 0.1
2017-Nov-10 18:30N 32°23' W 090°53'1 1.1
2017-Nov-10 18:00N 32°23' W 090°53'0 0.4
2017-Nov-10 17:30N 32°23' W 090°53'0 0.7
2017-Nov-10 17:00N 32°23' W 090°53'0 0.0
2017-Nov-10 16:30N 32°23' W 090°53'1 2.5
2017-Nov-10 16:00N 32°22' W 090°53'2 3.2
2017-Nov-10 15:30N 32°21' W 090°53'2 4.0
2017-Nov-10 15:00N 32°19' W 090°54'0 0.4
2017-Nov-10 14:30N 32°19' W 090°55'1 1.1
2017-Nov-10 14:00N 32°18' W 090°55'2 3.3
2017-Nov-10 13:30N 32°20' W 090°54'0 0.0
2017-Nov-10 13:00N 32°20' W 090°54'0 0.0
2017-Nov-10 12:30N 32°20' W 090°54'0 0.0
2017-Nov-10 12:00N 32°20' W 090°54'1 2.5
2017-Nov-10 11:30N 32°21' W 090°53'1 1.3
2017-Nov-10 11:00N 32°20' W 090°54'2 4.6
2017-Nov-10 10:30N 32°18' W 090°55'4 7.1
2017-Nov-10 10:00N 32°21' W 090°53'2 4.0
2017-Nov-10 09:30N 32°23' W 090°54'0 0.1
2017-Nov-10 09:00N 32°23' W 090°54'0 0.7
2017-Nov-10 08:30N 32°23' W 090°53'0 0.0
2017-Nov-10 08:00N 32°23' W 090°53'1 1.2
2017-Nov-10 07:30N 32°23' W 090°53'1 2.2
2017-Nov-10 07:00N 32°23' W 090°54'0 0.0
2017-Nov-10 06:30N 32°23' W 090°54'1 2.5
2017-Nov-10 06:00N 32°23' W 090°53'3 5.1
2017-Nov-10 05:30N 32°20' W 090°54'3 5.1
2017-Nov-10 05:00N 32°18' W 090°55'1 1.6
2017-Nov-10 04:30N 32°19' W 090°54'2 4.3
2017-Nov-10 04:00N 32°21' W 090°53'2 3.1
2017-Nov-10 03:30N 32°22' W 090°53'1 1.4
2017-Nov-10 03:00N 32°22' W 090°53'1 1.8
2017-Nov-10 02:30N 32°22' W 090°53'1 2.5
2017-Nov-10 02:00N 32°23' W 090°53'1 1.4
2017-Nov-10 01:30N 32°23' W 090°53'2 3.0
2017-Nov-10 01:00N 32°22' W 090°53'2 4.7
2017-Nov-10 00:30N 32°20' W 090°54'0 0.0
2017-Nov-10 00:00N 32°20' W 090°54'2 4.4
2017-Nov-09 23:30N 32°22' W 090°53'2 3.6
2017-Nov-09 23:00N 32°23' W 090°54'1 2.0
2017-Nov-09 22:30N 32°23' W 090°53'0 0.1
2017-Nov-09 22:00N 32°23' W 090°53'0 0.0
2017-Nov-09 21:30N 32°23' W 090°53'0 0.0
2017-Nov-09 21:00N 32°23' W 090°53'0 0.0
2017-Nov-09 20:30N 32°23' W 090°53'0 0.5
2017-Nov-09 20:00N 32°23' W 090°53'0 0.2
2017-Nov-09 19:30N 32°23' W 090°53'0 0.7
2017-Nov-09 19:00N 32°23' W 090°54'0 0.8
2017-Nov-09 18:30N 32°23' W 090°54'0 0.0
2017-Nov-09 18:00N 32°23' W 090°54'1 2.0
2017-Nov-09 17:30N 32°23' W 090°53'1 1.7
2017-Nov-09 17:00N 32°23' W 090°54'1 1.7
2017-Nov-09 16:30N 32°23' W 090°53'1 1.2
2017-Nov-09 16:00N 32°22' W 090°53'1 2.9
2017-Nov-09 15:30N 32°23' W 090°54'1 1.6
2017-Nov-09 15:00N 32°23' W 090°53'0 0.2
2017-Nov-09 14:30N 32°23' W 090°53'0 0.0
2017-Nov-09 14:00N 32°23' W 090°53'1 1.0
2017-Nov-09 13:30N 32°23' W 090°53'3 5.6
2017-Nov-09 13:00N 32°20' W 090°54'1 1.3
2017-Nov-09 12:30N 32°20' W 090°54'0 0.0
2017-Nov-09 12:00N 32°20' W 090°54'2 3.1
2017-Nov-09 11:30N 32°21' W 090°53'2 4.3
2017-Nov-09 11:00N 32°23' W 090°53'0 0.3
2017-Nov-09 10:30N 32°23' W 090°53'0 0.0
2017-Nov-09 10:00N 32°23' W 090°53'0 0.0
2017-Nov-09 09:30N 32°23' W 090°53'1 2.6
2017-Nov-09 09:00N 32°22' W 090°53'2 4.2
2017-Nov-09 08:30N 32°20' W 090°54'3 5.6
2017-Nov-09 08:00N 32°21' W 090°57'0 0.6
2017-Nov-09 07:30N 32°21' W 090°57'1 3.0
2017-Nov-09 07:00N 32°21' W 090°55'3 5.7
2017-Nov-09 06:30N 32°23' W 090°52'1 2.5
2017-Nov-09 06:00N 32°23' W 090°54'1 2.6
2017-Nov-09 05:30N 32°22' W 090°53'1 1.6
2017-Nov-09 05:00N 32°22' W 090°53'1 2.9
2017-Nov-09 04:30N 32°23' W 090°53'0 0.0
2017-Nov-09 04:00N 32°23' W 090°53'0 0.0
2017-Nov-09 03:30N 32°23' W 090°53'0 0.0
2017-Nov-09 03:00N 32°23' W 090°53'0 0.0
2017-Nov-09 02:30N 32°23' W 090°53'1 1.6
2017-Nov-09 02:00N 32°23' W 090°54'2 3.6
2017-Nov-09 01:30N 32°22' W 090°53'3 5.3
2017-Nov-09 01:00N 32°24' W 090°55'3 6.0
2017-Nov-09 00:30N 32°21' W 090°53'2 3.2
2017-Nov-09 00:01N 32°20' W 090°54'0 0.0
2017-Nov-08 23:31N 32°20' W 090°54'3 7.0
2017-Nov-08 23:01N 32°23' W 090°53'0 0.7
2017-Nov-08 22:31N 32°23' W 090°53'1 1.8
2017-Nov-08 22:01N 32°22' W 090°53'3 6.0
2017-Nov-08 21:31N 32°20' W 090°54'2 4.2
2017-Nov-08 21:01N 32°22' W 090°53'2 3.1
2017-Nov-08 20:31N 32°23' W 090°53'1 2.9
2017-Nov-08 20:01N 32°22' W 090°53'2 4.8
2017-Nov-08 19:30N 32°23' W 090°55'0 0.1
2017-Nov-08 19:01N 32°23' W 090°55'2 3.0
2017-Nov-08 18:31N 32°23' W 090°53'0 0.8
2017-Nov-08 18:01N 32°23' W 090°53'0 0.0
2017-Nov-08 17:30N 32°23' W 090°53'0 0.8
2017-Nov-08 17:00N 32°23' W 090°53'2 3.3
2017-Nov-08 16:31N 32°21' W 090°53'0 0.5
2017-Nov-08 16:01N 32°22' W 090°53'2 3.0
2017-Nov-08 15:31N 32°23' W 090°53'0 0.3
2017-Nov-08 15:01N 32°23' W 090°53'0 0.0
2017-Nov-08 14:31N 32°23' W 090°53'0 0.0
2017-Nov-08 14:01N 32°23' W 090°53'0 0.0
2017-Nov-08 13:30N 32°23' W 090°53'1 1.8
2017-Nov-08 13:01N 32°22' W 090°52'3 6.3
2017-Nov-08 12:31N 32°20' W 090°54'0 0.0
2017-Nov-08 12:00N 32°20' W 090°54'0 0.0
2017-Nov-08 11:31N 32°20' W 090°54'1 1.8
2017-Nov-08 11:01N 32°20' W 090°54'1 2.3
2017-Nov-08 10:31N 32°21' W 090°53'0 0.0
2017-Nov-08 10:00N 32°21' W 090°53'0 0.0
2017-Nov-08 09:31N 32°21' W 090°53'1 1.9
2017-Nov-08 09:00N 32°22' W 090°53'1 2.3
2017-Nov-08 08:31N 32°23' W 090°53'0 0.0
2017-Nov-08 08:00N 32°23' W 090°53'0 0.0
2017-Nov-08 07:31N 32°23' W 090°53'0 0.0
2017-Nov-08 07:00N 32°23' W 090°53'0 0.0
2017-Nov-08 06:31N 32°23' W 090°53'0 0.0
2017-Nov-08 06:01N 32°23' W 090°53'0 0.0
2017-Nov-08 05:31N 32°23' W 090°53'0 0.0
2017-Nov-08 05:01N 32°23' W 090°53'0 0.0
2017-Nov-08 04:31N 32°23' W 090°53'0 0.0
2017-Nov-08 04:01N 32°23' W 090°53'0 0.0
2017-Nov-08 03:31N 32°23' W 090°53'0 0.0
2017-Nov-08 03:01N 32°23' W 090°53'0 0.0
2017-Nov-08 02:30N 32°23' W 090°53'0 0.0
2017-Nov-08 02:01N 32°23' W 090°53'0 0.0
2017-Nov-08 01:31N 32°23' W 090°53'0 1.0
2017-Nov-08 01:01N 32°23' W 090°53'3 6.4
2017-Nov-08 00:31N 32°20' W 090°54'0 0.8
2017-Nov-08 00:01N 32°20' W 090°54'0 0.0
2017-Nov-07 23:30N 32°20' W 090°54'3 5.5
2017-Nov-07 23:01N 32°22' W 090°53'  

Dump ship's entire track history